createdAt,value
2023-12-10T00:00:40.580Z,100552.44
2023-12-10T00:02:42.179Z,100546.72
2023-12-10T00:04:45.028Z,100555.00
2023-12-10T00:06:46.717Z,100556.97
2023-12-10T00:08:48.775Z,100550.00
2023-12-10T00:10:50.435Z,100571.72
2023-12-10T00:12:52.128Z,100567.31
2023-12-10T00:14:55.756Z,100576.25
2023-12-10T00:16:57.347Z,100579.63
2023-12-10T00:18:59.164Z,100581.31
2023-12-10T00:21:00.926Z,100595.28
2023-12-10T00:23:02.645Z,100585.53
2023-12-10T00:25:04.721Z,100588.22
2023-12-10T00:27:06.329Z,100588.22
2023-12-10T00:29:07.914Z,100592.38
2023-12-10T00:31:10.102Z,100595.72
2023-12-10T00:33:13.383Z,100602.09
2023-12-10T00:35:15.274Z,100591.50
2023-12-10T00:37:17.377Z,100589.81
2023-12-10T00:39:19.085Z,100585.47
2023-12-10T00:41:20.774Z,100591.19
2023-12-10T00:43:22.399Z,100591.91
2023-12-10T00:45:24.348Z,100601.50
2023-12-10T00:47:26.086Z,100614.94
2023-12-10T00:49:27.955Z,100601.63
2023-12-10T00:51:29.665Z,100608.03
2023-12-10T00:53:31.284Z,100613.69
2023-12-10T00:55:32.913Z,100618.34
2023-12-10T00:57:35.501Z,100633.50
2023-12-10T00:59:37.354Z,100621.75
2023-12-10T01:01:39.093Z,100625.97
2023-12-10T01:03:40.911Z,100629.22
2023-12-10T01:05:42.726Z,100626.53
2023-12-10T01:07:44.549Z,100639.94
2023-12-10T01:09:46.266Z,100645.16
2023-12-10T01:11:47.948Z,100649.00
2023-12-10T01:13:49.593Z,100662.59
2023-12-10T01:15:55.945Z,100663.59
2023-12-10T01:18:02.007Z,100651.53
2023-12-10T01:20:04.992Z,100682.69
2023-12-10T01:22:06.551Z,100686.09
2023-12-10T01:24:09.328Z,100693.97
2023-12-10T01:26:14.257Z,100687.75
2023-12-10T01:28:16.043Z,100678.31
2023-12-10T01:30:17.901Z,100685.22
2023-12-10T01:32:21.882Z,100695.34
2023-12-10T01:34:23.787Z,100703.72
2023-12-10T01:36:25.781Z,100699.81
2023-12-10T01:38:27.445Z,100699.66
2023-12-10T01:40:29.029Z,100712.38
2023-12-10T01:42:30.847Z,100710.56
2023-12-10T01:44:33.175Z,100722.13
2023-12-10T01:46:34.758Z,100717.44
2023-12-10T01:48:36.772Z,100702.03
2023-12-10T01:50:39.984Z,100706.69
2023-12-10T01:52:43.098Z,100716.47
2023-12-10T01:54:45.020Z,100710.81
2023-12-10T01:56:59.297Z,100717.00
2023-12-10T01:59:06.352Z,100701.63
2023-12-10T02:01:08.386Z,100697.81
2023-12-10T02:03:10.439Z,100703.47
2023-12-10T02:05:12.320Z,100703.75
2023-12-10T02:07:14.887Z,100715.75
2023-12-10T02:09:19.633Z,100717.16
2023-12-10T02:11:21.749Z,100708.13
2023-12-10T02:13:24.247Z,100718.84
2023-12-10T02:15:28.792Z,100713.31
2023-12-10T02:17:30.495Z,100730.16
2023-12-10T02:19:32.733Z,100724.06
2023-12-10T02:21:36.004Z,100720.53
2023-12-10T02:24:03.117Z,100719.16
2023-12-10T02:26:05.248Z,100721.44
2023-12-10T02:28:08.596Z,100732.72
2023-12-10T02:30:10.873Z,100724.53
2023-12-10T02:32:12.615Z,100738.63
2023-12-10T02:34:14.325Z,100737.97
2023-12-10T02:36:15.972Z,100752.47
2023-12-10T02:38:22.183Z,100738.22
2023-12-10T02:40:23.993Z,100745.13
2023-12-10T02:42:25.727Z,100751.47
2023-12-10T02:44:27.474Z,100756.19
2023-12-10T02:46:29.064Z,100752.63
2023-12-10T02:48:30.767Z,100750.09
2023-12-10T02:50:32.391Z,100756.19
2023-12-10T02:52:37.280Z,100741.50
2023-12-10T02:54:38.920Z,100760.38
2023-12-10T02:56:40.579Z,100761.09
2023-12-10T02:58:42.177Z,100753.88
2023-12-10T03:00:44.606Z,100758.94
2023-12-10T03:02:46.416Z,100765.16
2023-12-10T03:04:48.327Z,100768.56
2023-12-10T03:06:50.143Z,100772.38
2023-12-10T03:08:51.789Z,100784.13
2023-12-10T03:10:53.640Z,100801.25
2023-12-10T03:12:56.494Z,100797.03
2023-12-10T03:14:58.278Z,100809.16
2023-12-10T03:16:59.915Z,100800.94
2023-12-10T03:19:01.686Z,100806.31
2023-12-10T03:21:04.068Z,100805.16
2023-12-10T03:23:05.731Z,100799.66
2023-12-10T03:25:07.892Z,100801.22
2023-12-10T03:27:09.598Z,100818.31
2023-12-10T03:29:11.230Z,100810.41
2023-12-10T03:31:12.884Z,100809.00
2023-12-10T03:33:14.687Z,100826.13
2023-12-10T03:35:16.357Z,100830.66
2023-12-10T03:37:17.969Z,100832.50
2023-12-10T03:39:19.570Z,100836.88
2023-12-10T03:41:21.209Z,100841.94
2023-12-10T03:43:22.825Z,100849.00
2023-12-10T03:45:24.441Z,100851.41
2023-12-10T03:47:26.094Z,100868.69
2023-12-10T03:49:29.540Z,100856.94
2023-12-10T03:51:32.597Z,100865.84
2023-12-10T03:53:34.580Z,100877.59
2023-12-10T03:55:36.231Z,100871.38
2023-12-10T03:57:37.939Z,100866.59
2023-12-10T03:59:39.628Z,100877.88
2023-12-10T04:01:44.554Z,100862.44
2023-12-10T04:03:46.420Z,100863.31
2023-12-10T04:05:48.259Z,100862.00
2023-12-10T04:07:49.958Z,100858.50
2023-12-10T04:09:51.572Z,100858.34
2023-12-10T04:11:56.531Z,100871.75
2023-12-10T04:13:58.193Z,100883.38
2023-12-10T04:16:01.631Z,100865.72
2023-12-10T04:18:03.347Z,100880.81
2023-12-10T04:20:06.865Z,100866.69
2023-12-10T04:22:08.728Z,100863.88
2023-12-10T04:24:10.481Z,100868.22
2023-12-10T04:26:12.327Z,100880.56
2023-12-10T04:28:14.021Z,100878.56
2023-12-10T04:30:15.813Z,100878.72
2023-12-10T04:32:18.124Z,100859.75
2023-12-10T04:34:19.894Z,100882.97
2023-12-10T04:36:21.689Z,100889.19
2023-12-10T04:38:23.628Z,100879.56
2023-12-10T04:40:25.380Z,100868.53
2023-12-10T04:42:27.598Z,100880.13
2023-12-10T04:44:29.548Z,100866.69
2023-12-10T04:46:31.225Z,100878.13
2023-12-10T04:48:33.821Z,100869.81
2023-12-10T04:50:35.592Z,100858.91
2023-12-10T04:52:37.187Z,100858.22
2023-12-10T04:54:38.840Z,100860.75
2023-12-10T04:56:40.778Z,100869.53
2023-12-10T04:58:42.445Z,100875.03
2023-12-10T05:00:44.920Z,100876.47
2023-12-10T05:02:46.520Z,100880.69
2023-12-10T05:04:48.161Z,100883.66
2023-12-10T05:06:49.768Z,100873.59
2023-12-10T05:08:51.402Z,100867.25
2023-12-10T05:10:53.149Z,100882.13
2023-12-10T05:12:54.833Z,100883.81
2023-12-10T05:14:57.071Z,100883.81
2023-12-10T05:16:58.707Z,100893.41
2023-12-10T05:19:00.522Z,100891.56
2023-12-10T05:21:02.365Z,100897.94
2023-12-10T05:23:04.193Z,100899.50
2023-12-10T05:25:06.009Z,100905.44
2023-12-10T05:27:07.776Z,100894.97
2023-12-10T05:29:09.472Z,100896.69
2023-12-10T05:31:11.376Z,100895.56
2023-12-10T05:33:13.206Z,100910.69
2023-12-10T05:35:15.105Z,100904.47
2023-12-10T05:37:16.841Z,100905.00
2023-12-10T05:39:18.575Z,100906.69
2023-12-10T05:41:20.319Z,100922.53
2023-12-10T05:43:21.920Z,100926.06
2023-12-10T05:45:23.617Z,100922.69
2023-12-10T05:47:25.553Z,100925.50
2023-12-10T05:49:27.328Z,100924.97
2023-12-10T05:51:29.121Z,100928.50
2023-12-10T05:53:30.793Z,100933.03
2023-12-10T05:55:32.578Z,100930.34
2023-12-10T05:57:34.259Z,100925.25
2023-12-10T05:59:35.966Z,100935.72
2023-12-10T06:01:37.746Z,100943.47
2023-12-10T06:03:39.505Z,100951.38
2023-12-10T06:05:41.258Z,100946.00
2023-12-10T06:07:42.908Z,100940.63
2023-12-10T06:09:45.191Z,100937.25
2023-12-10T06:11:46.869Z,100934.03
2023-12-10T06:13:48.587Z,100939.53
2023-12-10T06:15:50.315Z,100944.06
2023-12-10T06:17:51.990Z,100944.78
2023-12-10T06:19:54.407Z,100943.78
2023-12-10T06:21:56.317Z,100940.25
2023-12-10T06:23:58.063Z,100928.94
2023-12-10T06:25:59.752Z,100938.25
2023-12-10T06:28:01.428Z,100941.34
2023-12-10T06:30:03.147Z,100935.13
2023-12-10T06:32:05.244Z,100935.25
2023-12-10T06:34:07.165Z,100930.34
2023-12-10T06:36:09.314Z,100930.19
2023-12-10T06:38:11.023Z,100931.88
2023-12-10T06:40:12.770Z,100940.63
2023-12-10T06:42:14.454Z,100943.31
2023-12-10T06:44:22.441Z,100943.19
2023-12-10T06:46:24.095Z,100940.34
2023-12-10T06:48:26.762Z,100937.81
2023-12-10T06:50:28.604Z,100944.88
2023-12-10T06:52:30.507Z,100935.56
2023-12-10T06:54:32.422Z,100940.06
2023-12-10T06:56:39.416Z,100943.03
2023-12-10T06:58:41.322Z,100953.94
2023-12-10T07:00:42.988Z,100944.47
2023-12-10T07:02:44.750Z,100956.47
2023-12-10T07:04:46.439Z,100953.78
2023-12-10T07:06:48.152Z,100950.13
2023-12-10T07:08:49.803Z,100944.75
2023-12-10T07:10:51.508Z,100952.66
2023-12-10T07:12:54.724Z,100950.81
2023-12-10T07:14:56.525Z,100957.91
2023-12-10T07:16:58.248Z,100968.66
2023-12-10T07:19:00.074Z,100973.47
2023-12-10T07:21:01.917Z,100960.44
2023-12-10T07:23:03.696Z,100962.28
2023-12-10T07:25:06.106Z,100952.38
2023-12-10T07:27:07.792Z,100963.13
2023-12-10T07:29:09.404Z,100967.22
2023-12-10T07:31:11.100Z,100963.41
2023-12-10T07:33:12.907Z,100969.63
2023-12-10T07:37:16.240Z,100971.34
2023-12-10T07:39:18.283Z,100981.09
2023-12-10T07:41:19.918Z,100965.53
2023-12-10T07:43:21.575Z,100963.56
2023-12-10T07:45:23.281Z,100982.50
2023-12-10T07:47:24.888Z,100976.16
2023-12-10T07:49:26.940Z,100979.69
2023-12-10T07:51:28.661Z,100968.50
2023-12-10T07:53:30.446Z,100970.50
2023-12-10T07:55:32.132Z,100980.25
2023-12-10T07:57:34.014Z,100962.84
2023-12-10T07:59:35.765Z,100974.69
2023-12-10T08:01:37.499Z,100981.94
2023-12-10T08:03:39.475Z,100960.59
2023-12-10T08:05:41.372Z,100958.47
2023-12-10T08:07:43.067Z,100953.78
2023-12-10T08:09:44.769Z,100953.94
2023-12-10T08:11:46.457Z,100952.81
2023-12-10T08:13:48.737Z,100953.78
2023-12-10T08:15:50.705Z,100950.81
2023-12-10T08:17:52.751Z,100947.16
2023-12-10T08:19:55.421Z,100946.97
2023-12-10T08:21:57.313Z,100939.75
2023-12-10T08:23:59.004Z,100932.84
2023-12-10T08:26:01.412Z,100935.13
2023-12-10T08:28:03.435Z,100956.06
2023-12-10T08:30:05.537Z,100966.81
2023-12-10T08:32:07.739Z,100960.72
2023-12-10T08:34:09.507Z,100964.53
2023-12-10T08:36:11.441Z,100967.94
2023-12-10T08:38:13.033Z,100962.00
2023-12-10T08:40:15.987Z,100963.41
2023-12-10T08:42:17.702Z,100952.94
2023-12-10T08:44:19.591Z,100956.34
2023-12-10T08:46:21.386Z,100948.28
2023-12-10T08:48:23.079Z,100960.31
2023-12-10T08:50:27.185Z,100954.06
2023-12-10T08:52:28.957Z,100953.94
2023-12-10T08:54:30.811Z,100955.22
2023-12-10T08:56:32.511Z,100950.00
2023-12-10T08:58:34.335Z,100945.63
2023-12-10T09:00:36.035Z,100949.88
2023-12-10T09:02:37.748Z,100945.31
2023-12-10T09:04:39.427Z,100932.28
2023-12-10T09:06:41.230Z,100928.47
2023-12-10T09:08:43.121Z,100918.00
2023-12-10T09:10:45.049Z,100918.41
2023-12-10T09:12:46.720Z,100926.47
2023-12-10T09:14:48.305Z,100916.03
2023-12-10T09:16:49.978Z,100918.16
2023-12-10T09:18:51.707Z,100921.69
2023-12-10T09:20:54.132Z,100923.38
2023-12-10T09:22:55.729Z,100908.53
2023-12-10T09:24:57.542Z,100901.88
2023-12-10T09:27:01.249Z,100902.72
2023-12-10T09:29:04.151Z,100898.03
2023-12-10T09:31:05.854Z,100884.78
2023-12-10T09:33:07.562Z,100883.47
2023-12-10T09:35:09.481Z,100870.03
2023-12-10T09:37:14.764Z,100872.16
2023-12-10T09:39:16.499Z,100879.69
2023-12-10T09:41:18.211Z,100883.91
2023-12-10T09:43:19.931Z,100882.75
2023-12-10T09:45:21.619Z,100860.28
2023-12-10T09:47:25.007Z,100854.19
2023-12-10T09:49:28.732Z,100858.13
2023-12-10T09:51:30.458Z,100881.47
2023-12-10T09:53:32.067Z,100875.41
2023-12-10T09:55:33.678Z,100867.78
2023-12-10T09:57:35.349Z,100876.84
2023-12-10T09:59:37.325Z,100885.16
2023-12-10T10:01:39.015Z,100876.00
2023-12-10T10:03:42.327Z,100876.53
2023-12-10T10:05:44.073Z,100876.84
2023-12-10T10:07:45.682Z,100872.16
2023-12-10T10:09:47.406Z,100861.13
2023-12-10T10:11:49.227Z,100871.72
2023-12-10T10:13:54.692Z,100860.81
2023-12-10T10:15:56.492Z,100846.50
2023-12-10T10:18:01.772Z,100839.31
2023-12-10T10:20:07.421Z,100830.38
2023-12-10T10:22:09.035Z,100836.78
2023-12-10T10:24:10.905Z,100826.47
2023-12-10T10:26:12.740Z,100818.84
2023-12-10T10:28:16.105Z,100819.25
2023-12-10T10:30:17.855Z,100816.41
2023-12-10T10:32:20.661Z,100807.19
2023-12-10T10:34:23.451Z,100807.06
2023-12-10T10:36:25.642Z,100810.44
2023-12-10T10:38:28.956Z,100801.53
2023-12-10T10:40:31.313Z,100787.38
2023-12-10T10:42:36.163Z,100792.44
2023-12-10T10:44:42.634Z,100777.50
2023-12-10T10:46:44.386Z,100774.63
2023-12-10T10:48:48.201Z,100754.56
2023-12-10T10:50:50.012Z,100744.69
2023-12-10T10:52:56.127Z,100742.16
2023-12-10T10:54:58.124Z,100735.38
2023-12-10T10:56:59.961Z,100747.22
2023-12-10T10:59:01.767Z,100747.06
2023-12-10T11:01:03.832Z,100753.13
2023-12-10T11:03:08.598Z,100758.38
2023-12-10T11:05:10.420Z,100760.91
2023-12-10T11:07:12.148Z,100727.16
2023-12-10T11:09:13.850Z,100746.63
2023-12-10T11:11:15.493Z,100739.88
2023-12-10T11:13:43.234Z,100741.84
2023-12-10T11:15:45.086Z,100738.00
2023-12-10T11:18:09.737Z,100728.09
2023-12-10T11:20:44.715Z,100719.88
2023-12-10T11:22:46.339Z,100717.88
2023-12-10T11:24:51.102Z,100712.38
2023-12-10T11:26:52.713Z,100700.44
2023-12-10T11:28:54.355Z,100703.31
2023-12-10T11:30:56.014Z,100696.25
2023-12-10T11:32:57.776Z,100677.16
2023-12-10T11:34:59.581Z,100670.94
2023-12-10T11:37:01.308Z,100667.13
2023-12-10T11:41:09.814Z,100672.34
2023-12-10T11:43:11.624Z,100652.84
2023-12-10T11:45:14.538Z,100651.53
2023-12-10T11:51:24.512Z,100639.63
2023-12-10T11:53:26.460Z,100619.56
2023-12-10T11:55:28.933Z,100634.25
2023-12-10T12:03:55.039Z,100622.97
2023-12-10T12:05:57.213Z,100610.34
2023-12-10T12:08:00.795Z,100594.09
2023-12-10T12:12:09.655Z,100600.13
2023-12-10T12:14:16.518Z,100595.59
2023-12-10T12:16:18.268Z,100591.06
2023-12-10T12:18:24.964Z,100580.66
2023-12-10T12:20:27.253Z,100575.88
2023-12-10T12:22:29.138Z,100576.56
2023-12-10T12:24:30.922Z,100563.97
2023-12-10T12:28:39.375Z,100564.66
2023-12-10T12:30:40.987Z,100557.97
2023-12-10T12:32:42.862Z,100537.47
2023-12-10T12:41:04.666Z,100505.69
2023-12-10T12:43:06.339Z,100502.31
2023-12-10T12:45:08.728Z,100481.94
2023-12-10T12:49:17.203Z,100480.94
2023-12-10T12:53:25.487Z,100464.50
2023-12-10T12:55:28.017Z,100470.75
2023-12-10T12:57:30.219Z,100470.56
2023-12-10T12:59:32.031Z,100456.13
2023-12-10T13:01:33.747Z,100453.28
2023-12-10T13:03:35.559Z,100447.38
2023-12-10T13:05:37.316Z,100451.44
2023-12-10T13:07:39.140Z,100461.81
2023-12-10T13:09:42.626Z,100466.66
2023-12-10T13:11:44.728Z,100457.72
2023-12-10T13:13:46.487Z,100459.41
2023-12-10T13:15:48.311Z,100440.84
2023-12-10T13:17:49.922Z,100465.25
2023-12-10T13:19:52.198Z,100462.34
2023-12-10T13:21:54.143Z,100459.66
2023-12-10T13:23:55.831Z,100443.94
2023-12-10T13:25:57.496Z,100439.22
2023-12-10T13:27:59.112Z,100437.69
2023-12-10T13:30:00.743Z,100426.41
2023-12-10T13:32:02.327Z,100428.56
2023-12-10T13:34:06.279Z,100413.25
2023-12-10T13:36:08.257Z,100409.09
2023-12-10T13:38:10.166Z,100401.06
2023-12-10T13:40:12.774Z,100400.50
2023-12-10T13:42:15.133Z,100408.25
2023-12-10T13:44:16.725Z,100408.94
2023-12-10T13:46:18.748Z,100399.19
2023-12-10T13:48:20.593Z,100390.44
2023-12-10T13:50:22.355Z,100396.81
2023-12-10T13:52:23.946Z,100394.66
2023-12-10T13:54:25.633Z,100393.63
2023-12-10T13:56:27.590Z,100365.16
2023-12-10T14:02:42.349Z,100367.09
2023-12-10T14:04:44.815Z,100367.47
2023-12-10T14:06:46.536Z,100361.59
2023-12-10T14:10:54.776Z,100331.50
2023-12-10T14:12:56.645Z,100327.81
2023-12-10T14:14:58.307Z,100311.84
2023-12-10T14:16:59.860Z,100318.25
2023-12-10T14:19:01.653Z,100327.44
2023-12-10T14:23:10.354Z,100323.41
2023-12-10T14:25:12.040Z,100318.16
2023-12-10T14:27:13.824Z,100299.72
2023-12-10T14:29:15.485Z,100311.13
2023-12-10T14:31:17.103Z,100300.25
2023-12-10T14:35:25.298Z,100282.13
2023-12-10T14:37:27.339Z,100281.81
2023-12-10T14:39:29.193Z,100285.50
2023-12-10T14:41:30.956Z,100260.94
2023-12-10T14:43:32.588Z,100253.59
2023-12-10T14:45:34.236Z,100256.97
2023-12-10T14:47:36.850Z,100250.22
2023-12-10T14:49:38.591Z,100236.47
2023-12-10T14:51:40.427Z,100251.91
2023-12-10T14:53:42.308Z,100248.72
2023-12-10T14:55:45.378Z,100238.81
2023-12-10T14:57:47.167Z,100241.25
2023-12-10T14:59:49.521Z,100242.41
2023-12-10T15:02:01.627Z,100212.88
2023-12-10T15:04:11.156Z,100225.47
2023-12-10T15:06:12.915Z,100219.41
2023-12-10T15:08:14.551Z,100234.47
2023-12-10T15:10:16.383Z,100243.41
2023-12-10T15:12:18.038Z,100202.41
2023-12-10T15:14:19.719Z,100253.81
2023-12-10T15:16:21.468Z,100228.81
2023-12-10T15:18:23.129Z,100226.75
2023-12-10T15:20:24.919Z,100212.06
2023-12-10T15:22:26.663Z,100175.94
2023-12-10T15:24:30.684Z,100202.25
2023-12-10T15:26:32.587Z,100211.47
2023-12-10T15:28:34.380Z,100209.78
2023-12-10T15:30:36.996Z,100178.09
2023-12-10T15:32:39.457Z,100185.84
2023-12-10T15:34:41.179Z,100166.56
2023-12-10T15:36:42.878Z,100169.25
2023-12-10T15:38:44.528Z,100148.72
2023-12-10T15:40:46.153Z,100172.78
2023-12-10T15:42:47.850Z,100193.78
2023-12-10T15:44:49.435Z,100196.25
2023-12-10T15:46:51.070Z,100185.31
2023-12-10T15:48:54.023Z,100171.38
2023-12-10T15:50:56.236Z,100142.72
2023-12-10T15:52:57.976Z,100151.59
2023-12-10T15:55:00.365Z,100167.31
2023-12-10T15:57:04.855Z,100154.72
2023-12-10T15:59:06.575Z,100145.31
2023-12-10T16:01:08.585Z,100122.97
2023-12-10T16:03:10.387Z,100141.19
2023-12-10T16:05:12.155Z,100134.56
2023-12-10T16:07:16.605Z,100133.91
2023-12-10T16:09:19.569Z,100121.88
2023-12-10T16:11:21.241Z,100126.25
2023-12-10T16:13:24.083Z,100145.84
2023-12-10T16:15:26.417Z,100130.44
2023-12-10T16:17:28.174Z,100129.00
2023-12-10T16:19:29.941Z,100133.16
2023-12-10T16:21:31.921Z,100128.81
2023-12-10T16:23:33.642Z,100119.75
2023-12-10T16:25:35.743Z,100125.69
2023-12-10T16:27:37.469Z,100120.31
2023-12-10T16:29:39.176Z,100103.22
2023-12-10T16:31:40.926Z,100103.34
2023-12-10T16:33:43.516Z,100109.72
2023-12-10T16:35:45.302Z,100118.78
2023-12-10T16:37:47.043Z,100101.97
2023-12-10T16:39:48.948Z,100113.09
2023-12-10T16:41:50.723Z,100091.53
2023-12-10T16:43:52.494Z,100126.50
2023-12-10T16:45:54.971Z,100120.97
2023-12-10T16:47:56.709Z,100112.25
2023-12-10T16:49:58.643Z,100122.81
2023-12-10T16:52:00.509Z,100128.19
2023-12-10T16:54:02.263Z,100115.59
2023-12-10T16:56:04.063Z,100110.25
2023-12-10T16:58:05.673Z,100106.03
2023-12-10T17:00:08.211Z,100110.94
2023-12-10T17:02:10.283Z,100111.09
2023-12-10T17:04:12.030Z,100107.72
2023-12-10T17:06:13.751Z,100107.53
2023-12-10T17:08:15.460Z,100103.56
2023-12-10T17:10:17.088Z,100113.44
2023-12-10T17:12:18.921Z,100118.81
2023-12-10T17:14:20.802Z,100117.84
2023-12-10T17:16:22.456Z,100113.13
2023-12-10T17:18:24.252Z,100119.00
2023-12-10T17:20:26.016Z,100114.34
2023-12-10T17:22:27.733Z,100116.00
2023-12-10T17:24:29.361Z,100107.97
2023-12-10T17:26:31.175Z,100101.75
2023-12-10T17:28:32.922Z,100110.13
2023-12-10T17:30:34.658Z,100116.50
2023-12-10T17:32:36.569Z,100106.63
2023-12-10T17:34:38.178Z,100103.75
2023-12-10T17:36:39.900Z,100106.13
2023-12-10T17:38:41.495Z,100080.47
2023-12-10T17:40:43.123Z,100100.44
2023-12-10T17:42:44.774Z,100100.59
2023-12-10T17:44:53.909Z,100085.34
2023-12-10T17:46:58.768Z,100083.81
2023-12-10T17:49:00.559Z,100087.03
2023-12-10T17:51:09.860Z,100070.38
2023-12-10T17:53:17.528Z,100092.56
2023-12-10T17:55:19.366Z,100093.56
2023-12-10T17:57:21.116Z,100105.34
2023-12-10T17:59:22.754Z,100098.13
2023-12-10T18:01:24.750Z,100095.44
2023-12-10T18:03:26.561Z,100101.50
2023-12-10T18:05:28.460Z,100099.13
2023-12-10T18:07:30.467Z,100098.97
2023-12-10T18:09:32.359Z,100083.88
2023-12-10T18:11:34.167Z,100103.88
2023-12-10T18:13:35.837Z,100092.25
2023-12-10T18:15:37.824Z,100095.47
2023-12-10T18:17:39.943Z,100099.84
2023-12-10T18:19:41.700Z,100096.47
2023-12-10T18:21:43.788Z,100090.97
2023-12-10T18:23:46.291Z,100095.47
2023-12-10T18:25:47.942Z,100092.59
2023-12-10T18:27:50.126Z,100100.16
2023-12-10T18:29:51.895Z,100101.84
2023-12-10T18:31:54.107Z,100102.69
2023-12-10T18:33:56.010Z,100106.88
2023-12-10T18:35:57.798Z,100107.63
2023-12-10T18:37:59.508Z,100114.84
2023-12-10T18:40:01.406Z,100099.84
2023-12-10T18:42:03.255Z,100110.59
2023-12-10T18:44:05.690Z,100095.81
2023-12-10T18:46:07.343Z,100111.56
2023-12-10T18:48:09.979Z,100105.53
2023-12-10T18:50:11.691Z,100108.59
2023-12-10T18:52:13.431Z,100104.94
2023-12-10T18:54:15.239Z,100104.22
2023-12-10T18:56:17.347Z,100108.13
2023-12-10T18:58:19.211Z,100071.63
2023-12-10T19:00:23.524Z,100100.41
2023-12-10T19:02:25.218Z,100113.63
2023-12-10T19:04:27.055Z,100102.25
2023-12-10T19:06:29.023Z,100110.97
2023-12-10T19:08:30.929Z,100112.66
2023-12-10T19:10:32.658Z,100102.25
2023-12-10T19:12:34.449Z,100110.50
2023-12-10T19:14:36.271Z,100120.91
2023-12-10T19:16:37.933Z,100115.53
2023-12-10T19:18:43.446Z,100116.38
2023-12-10T19:20:45.242Z,100125.13
2023-12-10T19:22:46.972Z,100113.19
2023-12-10T19:24:48.739Z,100125.13
2023-12-10T19:26:50.699Z,100125.78
2023-12-10T19:28:53.273Z,100119.25
2023-12-10T19:30:55.148Z,100114.91
2023-12-10T19:32:56.989Z,100117.06
2023-12-10T19:34:58.682Z,100117.25
2023-12-10T19:37:00.331Z,100122.13
2023-12-10T19:39:02.051Z,100136.25
2023-12-10T19:41:03.916Z,100138.75
2023-12-10T19:43:05.637Z,100131.72
2023-12-10T19:45:07.647Z,100128.34
2023-12-10T19:47:09.356Z,100114.03
2023-12-10T19:49:10.979Z,100132.22
2023-12-10T19:51:12.654Z,100131.06
2023-12-10T19:53:14.257Z,100118.09
2023-12-10T19:55:16.132Z,100125.84
2023-12-10T19:57:17.957Z,100135.94
2023-12-10T19:59:23.994Z,100125.19
2023-12-10T20:01:25.911Z,100123.19
2023-12-10T20:03:28.622Z,100124.03
2023-12-10T20:05:31.136Z,100128.56
2023-12-10T20:07:32.933Z,100126.84
2023-12-10T20:09:34.918Z,100127.56
2023-12-10T20:11:36.644Z,100125.56
2023-12-10T20:13:38.568Z,100135.13
2023-12-10T20:15:40.588Z,100134.63
2023-12-10T20:17:42.581Z,100132.78
2023-12-10T20:19:45.400Z,100122.88
2023-12-10T20:21:47.180Z,100130.78
2023-12-10T20:23:49.663Z,100130.94
2023-12-10T20:25:51.325Z,100129.41
2023-12-10T20:27:53.763Z,100132.63
2023-12-10T20:29:55.656Z,100111.94
2023-12-10T20:31:57.351Z,100135.31
2023-12-10T20:33:59.350Z,100133.28
2023-12-10T20:36:03.266Z,100143.88
2023-12-10T20:38:07.705Z,100146.25
2023-12-10T20:40:09.642Z,100128.28
2023-12-10T20:42:11.356Z,100144.41
2023-12-10T20:44:12.967Z,100140.00
2023-12-10T20:46:14.774Z,100135.31
2023-12-10T20:48:17.178Z,100147.09
2023-12-10T20:50:20.460Z,100137.00
2023-12-10T20:52:22.157Z,100140.88
2023-12-10T20:54:23.828Z,100140.00
2023-12-10T20:56:25.645Z,100138.00
2023-12-10T20:58:27.633Z,100138.69
2023-12-10T21:00:34.430Z,100142.03
2023-12-10T21:02:36.355Z,100142.91
2023-12-10T21:04:39.986Z,100139.22
2023-12-10T21:06:41.850Z,100124.44
2023-12-10T21:08:43.613Z,100141.75
2023-12-10T21:10:45.453Z,100136.38
2023-12-10T21:12:47.122Z,100133.00
2023-12-10T21:14:48.900Z,100126.59
2023-12-10T21:16:50.573Z,100131.16
2023-12-10T21:18:52.516Z,100124.44
2023-12-10T21:20:54.724Z,100122.25
2023-12-10T21:22:56.445Z,100133.69
2023-12-10T21:24:58.320Z,100129.16
2023-12-10T21:27:00.056Z,100141.09
2023-12-10T21:29:02.415Z,100133.88
2023-12-10T21:31:04.805Z,100141.28
2023-12-10T21:33:06.572Z,100134.88
2023-12-10T21:35:08.288Z,100138.91
2023-12-10T21:37:10.193Z,100140.59
2023-12-10T21:39:12.195Z,100141.41
2023-12-10T21:41:13.822Z,100150.16
2023-12-10T21:43:15.412Z,100157.91
2023-12-10T21:45:17.040Z,100141.75
2023-12-10T21:47:18.869Z,100140.38
2023-12-10T21:49:20.696Z,100171.66
2023-12-10T21:51:22.616Z,100166.47
2023-12-10T21:53:24.254Z,100163.94
2023-12-10T21:55:25.979Z,100179.53
2023-12-10T21:57:28.020Z,100183.25
2023-12-10T21:59:29.835Z,100176.84
2023-12-10T22:01:33.469Z,100167.63
2023-12-10T22:03:35.357Z,100174.84
2023-12-10T22:05:37.827Z,100181.75
2023-12-10T22:07:39.672Z,100177.91
2023-12-10T22:09:41.766Z,100174.19
2023-12-10T22:11:43.578Z,100181.44
2023-12-10T22:13:45.271Z,100187.47
2023-12-10T22:15:46.966Z,100186.47
2023-12-10T22:17:48.832Z,100191.03
2023-12-10T22:19:50.623Z,100181.56
2023-12-10T22:21:52.326Z,100179.06
2023-12-10T22:23:54.053Z,100189.50
2023-12-10T22:25:55.648Z,100188.66
2023-12-10T22:27:57.276Z,100196.53
2023-12-10T22:30:01.192Z,100190.84
2023-12-10T22:34:09.560Z,100202.59
2023-12-10T22:36:11.804Z,100206.97
2023-12-10T22:38:13.442Z,100201.41
2023-12-10T22:40:15.211Z,100215.84
2023-12-10T22:42:16.961Z,100211.66
2023-12-10T22:46:26.628Z,100211.13
2023-12-10T22:48:28.564Z,100219.38
2023-12-10T22:50:30.299Z,100213.50
2023-12-10T22:52:31.931Z,100212.34
2023-12-10T22:54:33.781Z,100225.44
2023-12-10T22:58:42.091Z,100218.22
2023-12-10T23:00:43.941Z,100222.75
2023-12-10T23:02:46.076Z,100212.53
2023-12-10T23:04:57.890Z,100223.78
2023-12-10T23:06:59.619Z,100216.88
2023-12-10T23:09:01.907Z,100225.78
2023-12-10T23:11:03.699Z,100221.09
2023-12-10T23:13:05.850Z,100213.19
2023-12-10T23:15:07.782Z,100224.44
2023-12-10T23:19:16.825Z,100223.94
2023-12-10T23:21:18.514Z,100230.66
2023-12-10T23:23:20.120Z,100224.44
2023-12-10T23:25:21.726Z,100225.09
2023-12-10T23:27:23.343Z,100218.88
2023-12-10T23:29:25.078Z,100224.09
2023-12-10T23:31:26.798Z,100231.84
2023-12-10T23:37:41.824Z,100230.50
2023-12-10T23:39:46.572Z,100227.81
2023-12-10T23:41:48.240Z,100221.09
2023-12-10T23:43:49.968Z,100210.16
2023-12-10T23:45:51.673Z,100214.19
2023-12-10T23:47:53.300Z,100225.81
2023-12-10T23:49:55.118Z,100223.13
2023-12-10T23:51:56.839Z,100220.75
2023-12-10T23:53:58.922Z,100225.28
2023-12-10T23:56:03.610Z,100224.28
2023-12-10T23:58:05.444Z,100218.59
